Time;durP1;ratioP1;P1;durP2;ratioP2;P2;SDS_P1;SDS_P2;PMS_P1;PMS_P2;Temp;Humidity;BMP_temperature;BMP_pressure;BME280_temperature;BME280_humidity;BME280_pressure;Samples;Min_cycle;Max_cycle;Signal;HPM_P1;HPM_P2
2022/08/05 00:00:16;;;;;;;4.30;2.08;;;17.60;99.90;;;;;;5037874;28;20068;-71
2022/08/05 00:02:41;;;;;;;3.92;1.85;;;17.60;99.90;;;;;;5042203;28;20489;-70
2022/08/05 00:05:07;;;;;;;6.90;2.20;;;17.60;99.90;;;;;;5032361;28;20259;-71
2022/08/05 00:07:33;;;;;;;6.15;2.28;;;17.60;99.90;;;;;;5026903;28;20049;-71
2022/08/05 00:09:59;;;;;;;5.28;1.88;;;17.60;99.90;;;;;;5034789;28;20056;-71
2022/08/05 00:12:24;;;;;;;4.40;2.30;;;17.60;99.90;;;;;;5046481;28;20041;-72
2022/08/05 00:14:50;;;;;;;6.13;2.45;;;17.60;99.90;;;;;;5035465;28;20044;-71
2022/08/05 00:17:16;;;;;;;4.47;2.20;;;17.60;99.90;;;;;;5024232;28;20045;-70
2022/08/05 00:19:41;;;;;;;6.72;2.35;;;17.60;99.90;;;;;;5035055;28;20045;-71
2022/08/05 00:22:07;;;;;;;3.85;2.30;;;17.50;99.90;;;;;;5040879;28;20054;-70
2022/08/05 00:24:32;;;;;;;6.72;2.53;;;17.50;99.90;;;;;;5032288;28;20400;-72
2022/08/05 00:26:59;;;;;;;5.63;1.95;;;17.50;99.90;;;;;;5027283;28;20045;-71
2022/08/05 00:29:25;;;;;;;9.20;2.50;;;17.50;99.90;;;;;;5040577;28;20059;-71
2022/08/05 00:31:51;;;;;;;6.13;2.28;;;17.50;99.90;;;;;;5033821;28;20103;-71
2022/08/05 00:34:17;;;;;;;5.55;2.28;;;17.50;99.90;;;;;;5034382;28;20084;-71
2022/08/05 00:36:42;;;;;;;4.75;2.60;;;17.50;99.90;;;;;;5034634;28;20082;-71
2022/08/05 00:39:08;;;;;;;5.30;2.30;;;17.50;99.90;;;;;;5029654;28;20049;-71
2022/08/05 00:41:35;;;;;;;4.85;2.30;;;17.40;99.90;;;;;;5040007;28;20385;-71
2022/08/05 00:44:01;;;;;;;5.70;2.60;;;17.40;99.90;;;;;;5029413;28;20490;-71
2022/08/05 00:46:27;;;;;;;8.25;2.67;;;17.40;99.90;;;;;;5024502;28;20939;-71
2022/08/05 00:48:53;;;;;;;4.60;2.20;;;17.40;99.90;;;;;;5039140;28;20056;-71
2022/08/05 00:51:20;;;;;;;5.90;2.70;;;17.40;99.90;;;;;;5035428;28;20091;-72
2022/08/05 00:53:47;;;;;;;6.95;2.83;;;17.30;99.90;;;;;;5034302;28;20546;-70
2022/08/05 00:56:15;;;;;;;7.70;2.70;;;17.30;99.90;;;;;;5031632;28;20554;-72
2022/08/05 00:58:41;;;;;;;6.88;2.78;;;17.30;99.90;;;;;;5032575;28;20084;-70
2022/08/05 01:01:08;;;;;;;6.25;3.00;;;17.30;99.90;;;;;;5046634;28;20091;-72
2022/08/05 01:03:33;;;;;;;5.47;2.88;;;17.30;99.90;;;;;;5034915;28;20045;-71
2022/08/05 01:05:59;;;;;;;5.40;2.50;;;17.30;99.90;;;;;;5034023;28;20117;-71
2022/08/05 01:08:25;;;;;;;8.25;2.50;;;17.30;99.90;;;;;;5021406;28;20048;-71
2022/08/05 01:10:58;;;;;;;5.28;2.40;;;17.30;99.90;;;;;;5029367;28;20061;-71
2022/08/05 01:13:44;;;;;;;4.63;2.40;;;17.30;99.90;;;;;;5033410;28;20077;-71
2022/08/05 01:16:19;;;;;;;5.97;2.50;;;17.30;99.90;;;;;;5034312;28;20476;-72
2022/08/05 01:18:49;;;;;;;4.95;2.38;;;17.30;99.90;;;;;;5032169;28;20110;-71
2022/08/05 01:21:32;;;;;;;5.03;2.10;;;17.30;99.90;;;;;;5043553;28;20456;-71
2022/08/05 01:24:22;;;;;;;3.47;2.40;;;17.30;99.90;;;;;;5032160;28;20053;-70
2022/08/05 01:27:08;;;;;;;5.95;2.58;;;17.30;99.90;;;;;;5025088;28;20049;-71
2022/08/05 01:29:39;;;;;;;5.13;2.80;;;17.30;99.90;;;;;;5041236;28;20152;-71
2022/08/05 01:32:08;;;;;;;7.35;2.40;;;17.30;99.90;;;;;;5034992;28;20057;-70
2022/08/05 01:35:11;;;;;;;10.63;2.33;;;17.30;99.90;;;;;;5043743;28;20056;-70
2022/08/05 01:37:50;;;;;;;4.53;2.22;;;17.30;99.90;;;;;;5014618;28;20053;-71
2022/08/05 01:40:18;;;;;;;6.97;2.22;;;17.30;99.90;;;;;;5040622;28;20091;-71
2022/08/05 01:42:45;;;;;;;10.05;2.45;;;17.30;99.90;;;;;;5037627;28;20544;-70
2022/08/05 01:45:14;;;;;;;5.15;2.38;;;17.30;99.90;;;;;;5040773;28;20065;-71
2022/08/05 01:47:43;;;;;;;7.63;2.22;;;17.30;99.90;;;;;;5018535;28;20041;-71
2022/08/05 01:50:14;;;;;;;3.85;2.20;;;17.30;99.90;;;;;;5034514;28;20041;-70
2022/08/05 01:52:42;;;;;;;9.73;3.03;;;17.40;99.90;;;;;;5036015;28;20045;-71
2022/08/05 01:55:11;;;;;;;8.02;2.60;;;17.30;99.90;;;;;;5034130;28;20046;-71
2022/08/05 01:57:41;;;;;;;4.80;2.58;;;17.30;99.90;;;;;;5025350;28;20451;-70
2022/08/05 02:00:11;;;;;;;5.60;2.65;;;17.30;99.90;;;;;;5038763;28;20112;-71
2022/08/05 02:02:40;;;;;;;6.57;2.50;;;17.30;99.90;;;;;;5028584;28;20415;-71
2022/08/05 02:05:10;;;;;;;4.93;2.70;;;17.20;99.90;;;;;;5036037;28;20334;-71
2022/08/05 02:07:37;;;;;;;5.10;2.47;;;17.30;99.90;;;;;;5017051;28;20566;-71
2022/08/05 02:10:04;;;;;;;7.35;2.75;;;17.20;99.90;;;;;;5038368;28;20062;-71
2022/08/05 02:12:55;;;;;;;3.88;2.20;;;17.20;99.90;;;;;;5028904;28;20480;-71
2022/08/05 02:15:33;;;;;;;5.88;2.33;;;17.30;99.90;;;;;;5041333;28;20077;-71
2022/08/05 02:18:17;;;;;;;5.55;2.28;;;17.30;99.90;;;;;;5025065;28;20099;-71
2022/08/05 02:20:52;;;;;;;7.25;2.67;;;17.30;99.90;;;;;;5027539;28;20029;-71
2022/08/05 02:23:22;;;;;;;7.30;2.15;;;17.20;99.90;;;;;;5037031;28;20048;-71
2022/08/05 02:25:50;;;;;;;6.33;2.23;;;17.20;99.90;;;;;;5036666;28;20399;-71
2022/08/05 02:28:22;;;;;;;5.95;2.53;;;17.20;99.90;;;;;;5016948;28;20403;-71
2022/08/05 02:30:56;;;;;;;4.80;2.38;;;17.20;99.90;;;;;;5046558;28;20037;-71
2022/08/05 02:33:24;;;;;;;5.18;2.17;;;17.10;99.90;;;;;;5032145;28;20578;-71
2022/08/05 02:35:52;;;;;;;6.20;2.00;;;17.10;99.90;;;;;;5036021;28;20048;-71
2022/08/05 02:38:19;;;;;;;7.13;2.60;;;17.10;99.90;;;;;;5024567;28;20053;-71
2022/08/05 02:40:45;;;;;;;6.72;2.67;;;17.10;99.90;;;;;;5032417;28;20095;-71
2022/08/05 02:43:12;;;;;;;5.15;2.30;;;17.00;99.90;;;;;;5046118;28;20052;-71
2022/08/05 02:45:41;;;;;;;7.25;2.40;;;17.00;99.90;;;;;;5035278;28;20057;-71
2022/08/05 02:48:08;;;;;;;7.40;2.45;;;17.00;99.90;;;;;;5020930;28;20414;-71
2022/08/05 02:50:35;;;;;;;6.63;2.20;;;17.00;99.90;;;;;;5031627;28;20132;-71
2022/08/05 02:53:02;;;;;;;5.65;2.17;;;17.00;99.90;;;;;;5035969;28;20056;-71
2022/08/05 02:55:30;;;;;;;5.25;2.28;;;17.00;99.90;;;;;;5039475;28;20049;-71
2022/08/05 02:57:57;;;;;;;6.95;2.10;;;17.00;99.90;;;;;;5010432;28;20499;-71
2022/08/05 03:00:23;;;;;;;8.65;2.20;;;16.90;99.90;;;;;;5038766;28;20510;-71
2022/08/05 03:02:50;;;;;;;4.55;1.92;;;17.00;99.90;;;;;;5042591;28;20040;-71
2022/08/05 03:05:16;;;;;;;6.45;2.03;;;17.00;99.90;;;;;;5035010;28;20050;-71
2022/08/05 03:07:42;;;;;;;5.60;2.35;;;17.00;99.90;;;;;;5023193;28;20041;-71
2022/08/05 03:10:09;;;;;;;5.35;2.58;;;16.90;99.90;;;;;;5038664;28;20057;-71
2022/08/05 03:12:38;;;;;;;6.30;1.77;;;16.90;99.90;;;;;;5042714;28;20077;-71
2022/08/05 03:15:06;;;;;;;6.18;2.78;;;16.90;99.90;;;;;;5038887;28;20110;-71
2022/08/05 03:17:32;;;;;;;5.20;2.78;;;16.90;99.90;;;;;;5022819;28;20044;-71
2022/08/05 03:19:58;;;;;;;4.43;2.55;;;16.90;99.90;;;;;;5032293;28;20522;-71
2022/08/05 03:22:24;;;;;;;4.45;2.15;;;16.80;99.90;;;;;;5035637;28;20129;-71
2022/08/05 03:24:50;;;;;;;3.53;2.17;;;16.90;99.90;;;;;;5040975;28;20139;-71
2022/08/05 03:27:17;;;;;;;6.70;2.20;;;16.80;99.90;;;;;;5022509;28;20049;-70
2022/08/05 03:29:43;;;;;;;5.63;2.20;;;16.80;99.90;;;;;;5042722;28;20045;-71
2022/08/05 03:32:09;;;;;;;5.47;2.70;;;16.80;99.90;;;;;;5038323;28;20052;-71
2022/08/05 03:34:36;;;;;;;4.43;2.15;;;16.80;99.90;;;;;;5034843;28;20045;-71
2022/08/05 03:37:04;;;;;;;5.35;2.10;;;16.80;99.90;;;;;;5027498;28;20519;-71
2022/08/05 03:39:30;;;;;;;6.68;2.85;;;16.80;99.90;;;;;;5037591;28;20408;-71
2022/08/05 03:41:56;;;;;;;5.72;2.30;;;16.70;99.90;;;;;;5034319;28;20049;-71
2022/08/05 03:44:23;;;;;;;3.35;1.92;;;16.70;99.90;;;;;;5042678;28;20045;-71
2022/08/05 03:46:49;;;;;;;4.00;1.98;;;16.70;99.90;;;;;;5030178;28;20099;-71
2022/08/05 03:49:15;;;;;;;5.75;2.63;;;16.70;99.90;;;;;;5047504;28;20037;-71
2022/08/05 03:52:11;;;;;;;6.50;2.00;;;16.70;99.90;;;;;;5044968;28;20140;-71
2022/08/05 03:55:00;;;;;;;5.50;2.50;;;16.70;99.90;;;;;;5024811;28;20068;-71
2022/08/05 03:57:32;;;;;;;4.70;2.50;;;16.60;99.90;;;;;;5027698;28;20065;-71
2022/08/05 04:00:18;;;;;;;3.97;2.17;;;16.60;99.90;;;;;;5038244;28;20595;-71
2022/08/05 04:02:51;;;;;;;4.90;2.00;;;16.60;99.90;;;;;;5030990;28;20510;-71
2022/08/05 04:05:18;;;;;;;3.63;2.28;;;16.60;99.90;;;;;;5023146;28;20056;-71
2022/08/05 04:07:44;;;;;;;5.05;2.42;;;16.60;99.90;;;;;;5028248;28;20045;-71
2022/08/05 04:10:10;;;;;;;6.00;2.20;;;16.60;99.90;;;;;;5039290;28;20196;-71
2022/08/05 04:12:36;;;;;;;5.00;2.25;;;16.60;99.90;;;;;;5033781;28;20041;-71
2022/08/05 04:15:02;;;;;;;5.18;2.03;;;16.50;99.90;;;;;;5045160;28;20111;-71
2022/08/05 04:17:28;;;;;;;2.50;1.80;;;16.50;99.90;;;;;;5027069;28;20053;-71
2022/08/05 04:19:53;;;;;;;4.65;2.13;;;16.60;99.90;;;;;;5034077;28;20462;-71
2022/08/05 04:22:19;;;;;;;4.82;2.00;;;16.50;99.90;;;;;;5038197;28;20057;-71
2022/08/05 04:24:45;;;;;;;3.35;2.05;;;16.50;99.90;;;;;;5041052;28;20055;-71
2022/08/05 04:27:14;;;;;;;3.63;2.40;;;16.50;99.90;;;;;;5023706;28;20053;-70
2022/08/05 04:29:40;;;;;;;6.10;2.47;;;16.40;99.90;;;;;;5045258;28;20468;-71
2022/08/05 04:32:07;;;;;;;4.53;2.50;;;16.40;99.90;;;;;;5040256;28;20045;-70
2022/08/05 04:34:32;;;;;;;5.43;2.53;;;16.40;99.90;;;;;;5026999;28;20132;-71
2022/08/05 04:36:58;;;;;;;4.97;2.90;;;16.40;99.90;;;;;;5032585;28;20569;-71
2022/08/05 04:39:24;;;;;;;5.82;2.80;;;16.40;99.90;;;;;;5036627;28;20104;-71
2022/08/05 04:41:50;;;;;;;6.03;2.90;;;16.30;99.90;;;;;;5043240;28;20049;-71
2022/08/05 04:44:16;;;;;;;3.80;2.85;;;16.40;99.90;;;;;;5046577;28;20788;-70
2022/08/05 04:46:42;;;;;;;6.55;3.38;;;16.40;99.90;;;;;;5022718;28;20104;-71
2022/08/05 04:49:07;;;;;;;5.18;3.80;;;16.40;99.90;;;;;;5045116;28;20081;-71
2022/08/05 04:51:33;;;;;;;6.47;4.10;;;16.40;99.90;;;;;;5051558;28;20041;-71
2022/08/05 04:53:59;;;;;;;5.15;4.10;;;16.40;99.90;;;;;;5043759;28;20048;-71
2022/08/05 04:56:25;;;;;;;7.45;4.25;;;16.40;99.90;;;;;;5037155;28;20045;-71
2022/08/05 04:58:51;;;;;;;6.85;3.83;;;16.30;99.90;;;;;;5026267;28;20056;-71
2022/08/05 05:01:17;;;;;;;6.80;3.75;;;16.30;99.90;;;;;;5037343;28;20056;-71
2022/08/05 05:03:43;;;;;;;6.15;3.78;;;16.30;99.90;;;;;;5037706;28;20045;-71
2022/08/05 05:06:10;;;;;;;5.85;3.70;;;16.40;99.90;;;;;;5040404;28;20503;-71
2022/08/05 05:08:36;;;;;;;5.47;3.80;;;16.30;99.90;;;;;;5021205;28;20053;-71
2022/08/05 05:11:02;;;;;;;9.38;4.68;;;16.30;99.90;;;;;;5032644;28;20041;-70
2022/08/05 05:13:28;;;;;;;4.63;4.13;;;16.30;99.90;;;;;;5035364;28;20041;-71
2022/08/05 05:15:53;;;;;;;9.55;4.60;;;16.30;99.90;;;;;;5041166;28;20049;-71
2022/08/05 05:18:19;;;;;;;6.72;4.57;;;16.20;99.90;;;;;;5013373;28;20132;-71
2022/08/05 05:20:46;;;;;;;6.32;4.30;;;16.30;99.90;;;;;;5039114;28;20160;-71
2022/08/05 05:23:12;;;;;;;6.75;4.40;;;16.30;99.90;;;;;;5042243;28;20892;-71
2022/08/05 05:25:40;;;;;;;6.32;3.92;;;16.20;99.90;;;;;;5042819;28;20102;-71
2022/08/05 05:28:06;;;;;;;6.88;4.20;;;16.30;99.90;;;;;;5011159;28;20052;-71
2022/08/05 05:30:32;;;;;;;7.25;3.70;;;16.30;99.90;;;;;;5040499;28;20049;-71
2022/08/05 05:32:58;;;;;;;6.95;3.83;;;16.20;99.90;;;;;;5049320;28;20052;-71
2022/08/05 05:35:24;;;;;;;3.58;3.25;;;16.30;99.90;;;;;;5049659;28;20154;-71
2022/08/05 05:37:56;;;;;;;7.30;4.18;;;16.20;99.90;;;;;;5033716;28;20076;-71
2022/08/05 05:40:23;;;;;;;5.30;3.38;;;16.20;99.90;;;;;;5049686;28;20049;-71
2022/08/05 05:42:49;;;;;;;4.07;3.15;;;16.30;99.90;;;;;;5043854;28;20037;-71
2022/08/05 05:45:16;;;;;;;5.75;3.28;;;16.30;99.90;;;;;;5037048;28;20452;-71
2022/08/05 05:47:41;;;;;;;5.20;3.63;;;16.30;99.90;;;;;;5032946;28;20132;-71
2022/08/05 05:50:08;;;;;;;5.10;3.58;;;16.30;99.90;;;;;;5029225;28;20128;-71
2022/08/05 05:52:34;;;;;;;5.80;3.97;;;16.20;99.90;;;;;;5043426;28;20041;-71
2022/08/05 05:55:08;;;;;;;5.47;3.80;;;16.20;99.90;;;;;;5050415;28;20055;-71
2022/08/05 05:57:35;;;;;;;5.90;3.88;;;16.30;99.90;;;;;;5032729;28;20045;-71
2022/08/05 06:00:00;;;;;;;5.18;3.67;;;16.30;99.90;;;;;;5050684;28;20079;-71
2022/08/05 06:02:26;;;;;;;6.47;3.50;;;16.40;99.90;;;;;;5044413;28;20564;-71
2022/08/05 06:04:52;;;;;;;5.47;3.80;;;16.40;99.90;;;;;;5039159;28;20045;-71
2022/08/05 06:07:18;;;;;;;6.20;4.07;;;16.60;99.90;;;;;;5033851;28;20051;-71
2022/08/05 06:09:43;;;;;;;5.60;3.03;;;16.70;99.90;;;;;;5050257;28;20084;-72
2022/08/05 06:12:09;;;;;;;6.18;3.25;;;17.00;99.90;;;;;;5043536;28;20466;-71
2022/08/05 06:14:35;;;;;;;3.42;2.85;;;17.10;99.90;;;;;;5033707;28;20049;-72
2022/08/05 06:17:01;;;;;;;6.03;2.80;;;17.50;99.90;;;;;;5020010;28;20093;-72
2022/08/05 06:19:27;;;;;;;6.22;2.20;;;18.00;99.90;;;;;;5040105;28;20048;-71
2022/08/05 06:21:52;;;;;;;4.32;2.42;;;17.90;99.90;;;;;;5033164;28;20392;-72
2022/08/05 06:24:19;;;;;;;3.33;2.10;;;18.00;99.90;;;;;;5039566;28;20057;-75
2022/08/05 06:26:45;;;;;;;4.93;2.40;;;18.10;99.90;;;;;;5029855;28;20058;-72
2022/08/05 06:29:11;;;;;;;6.07;2.40;;;18.40;99.90;;;;;;5029183;28;20056;-72
2022/08/05 06:31:37;;;;;;;8.20;2.40;;;18.60;99.90;;;;;;5048016;28;20045;-71
2022/08/05 06:34:04;;;;;;;7.07;2.30;;;18.80;99.90;;;;;;5047884;28;20037;-74
2022/08/05 06:36:30;;;;;;;10.20;2.75;;;18.60;99.90;;;;;;5036391;28;20124;-72
2022/08/05 06:38:55;;;;;;;5.15;1.75;;;18.70;99.90;;;;;;5046228;28;20187;-71
2022/08/05 06:41:21;;;;;;;3.35;1.30;;;19.00;99.90;;;;;;5050013;28;20049;-73
2022/08/05 06:43:47;;;;;;;2.72;1.08;;;18.90;99.90;;;;;;5037089;28;20444;-72
2022/08/05 06:46:14;;;;;;;4.47;1.10;;;18.90;99.90;;;;;;5033413;28;20159;-76
2022/08/05 06:48:39;;;;;;;2.97;0.85;;;19.10;99.90;;;;;;5022994;28;20111;-73
2022/08/05 06:51:06;;;;;;;4.32;1.73;;;19.20;99.90;;;;;;5046335;28;20593;-74
2022/08/05 06:53:32;;;;;;;3.72;1.20;;;19.30;99.90;;;;;;5048917;28;20041;-74
2022/08/05 06:55:59;;;;;;;3.20;0.77;;;19.20;99.90;;;;;;5032103;28;20041;-72
2022/08/05 06:58:26;;;;;;;4.47;1.35;;;19.30;99.90;;;;;;5025270;28;20048;-72
2022/08/05 07:00:52;;;;;;;4.13;0.98;;;19.30;99.90;;;;;;5053637;28;20053;-72
2022/08/05 07:03:18;;;;;;;3.38;1.10;;;19.20;99.90;;;;;;5040744;28;20048;-76
2022/08/05 07:05:44;;;;;;;6.65;1.02;;;19.20;99.90;;;;;;5049847;28;20052;-72
2022/08/05 07:08:10;;;;;;;3.88;0.93;;;19.40;99.90;;;;;;5037068;28;20037;-71
2022/08/05 07:10:35;;;;;;;5.05;0.60;;;19.30;99.90;;;;;;5035686;28;20103;-72
2022/08/05 07:18:30;;;;;;;4.38;0.80;;;18.90;99.90;;;;;;5016728;28;20103;-71
2022/08/05 07:20:56;;;;;;;4.30;0.70;;;19.00;99.90;;;;;;5033990;28;20931;-71
2022/08/05 07:23:22;;;;;;;2.75;0.57;;;19.10;99.90;;;;;;5032991;28;20045;-71
2022/08/05 07:25:48;;;;;;;5.35;0.52;;;19.00;99.90;;;;;;5032183;28;20492;-74
2022/08/05 07:28:13;;;;;;;4.93;0.95;;;19.10;99.90;;;;;;5015517;28;20107;-74
2022/08/05 07:30:39;;;;;;;1.27;0.38;;;19.30;99.90;;;;;;5031838;28;20061;-72
2022/08/05 07:33:07;;;;;;;2.97;0.40;;;19.10;99.90;;;;;;5035489;28;20049;-71
2022/08/05 07:35:33;;;;;;;2.63;0.40;;;19.00;99.90;;;;;;5052109;28;20045;-71
2022/08/05 07:37:58;;;;;;;3.40;0.50;;;18.80;99.90;;;;;;5035940;28;20048;-72
2022/08/05 07:40:24;;;;;;;1.58;0.30;;;19.20;99.90;;;;;;5041070;28;20052;-72
2022/08/05 07:42:50;;;;;;;1.52;0.40;;;19.30;99.90;;;;;;5045252;28;20049;-71
2022/08/05 07:45:15;;;;;;;1.95;0.40;;;19.10;99.90;;;;;;5041048;28;20522;-71
2022/08/05 07:47:41;;;;;;;3.58;0.63;;;19.20;99.90;;;;;;5036939;28;20041;-71
2022/08/05 07:50:08;;;;;;;1.42;0.50;;;19.00;99.90;;;;;;5051380;28;20127;-71
2022/08/05 07:52:38;;;;;;;1.98;0.30;;;19.00;99.90;;;;;;5050385;28;20127;-72
2022/08/05 07:55:05;;;;;;;2.47;0.40;;;19.00;99.90;;;;;;5052563;28;20086;-71
2022/08/05 07:57:31;;;;;;;1.00;0.25;;;19.10;99.90;;;;;;5036333;28;20052;-75
2022/08/05 07:59:56;;;;;;;3.00;0.60;;;19.30;99.90;;;;;;5053048;28;20045;-71
2022/08/05 08:02:27;;;;;;;3.97;0.50;;;19.20;99.90;;;;;;5040587;28;20048;-72
2022/08/05 08:04:52;;;;;;;2.17;0.50;;;19.40;99.90;;;;;;5051237;28;20110;-77
2022/08/05 08:07:19;;;;;;;2.38;0.65;;;19.40;99.90;;;;;;5022707;28;20037;-71
2022/08/05 08:09:46;;;;;;;3.08;0.50;;;19.00;99.90;;;;;;5051698;28;20060;-72
2022/08/05 08:12:13;;;;;;;2.20;0.40;;;18.80;99.90;;;;;;5045285;28;20515;-77
2022/08/05 08:14:40;;;;;;;3.33;0.60;;;18.70;99.90;;;;;;5044448;28;20064;-74
2022/08/05 08:17:09;;;;;;;2.85;0.50;;;18.80;99.90;;;;;;5021015;28;20064;-70
2022/08/05 08:19:42;;;;;;;4.65;0.50;;;19.00;99.90;;;;;;5032046;28;20454;-71
2022/08/05 08:22:09;;;;;;;3.38;0.50;;;18.90;99.90;;;;;;5033488;28;20053;-74
2022/08/05 08:24:35;;;;;;;3.42;0.45;;;19.00;99.90;;;;;;5037655;28;20053;-71
2022/08/05 08:27:01;;;;;;;3.47;0.45;;;19.20;99.90;;;;;;4999461;28;20057;-73
2022/08/05 08:29:27;;;;;;;3.13;0.38;;;19.20;99.90;;;;;;5039788;28;20420;-71
2022/08/05 08:31:53;;;;;;;4.15;0.40;;;19.20;99.90;;;;;;5039070;28;20041;-71
2022/08/05 08:34:21;;;;;;;2.47;0.45;;;19.30;99.90;;;;;;5037623;28;20408;-71
2022/08/05 08:36:47;;;;;;;4.95;0.45;;;19.40;99.90;;;;;;5016495;28;20037;-71
2022/08/05 08:39:13;;;;;;;3.63;0.63;;;19.50;99.90;;;;;;5045964;28;20052;-73
2022/08/05 08:41:43;;;;;;;3.17;0.40;;;19.50;99.90;;;;;;5051918;28;20049;-77
2022/08/05 08:44:10;;;;;;;3.00;0.50;;;19.20;99.90;;;;;;5035881;28;20504;-70
2022/08/05 08:46:36;;;;;;;4.60;0.50;;;18.90;99.90;;;;;;5036781;28;20057;-74
2022/08/05 08:49:03;;;;;;;1.92;0.30;;;19.30;99.90;;;;;;5047937;28;20041;-73
2022/08/05 08:51:32;;;;;;;1.63;0.47;;;19.40;99.90;;;;;;5050340;28;20049;-75
2022/08/05 08:53:58;;;;;;;3.15;0.50;;;19.40;99.90;;;;;;5050474;28;20048;-71
2022/08/05 08:56:24;;;;;;;3.63;0.47;;;19.40;99.90;;;;;;5037943;28;20044;-77
2022/08/05 08:58:51;;;;;;;2.13;0.35;;;19.50;99.90;;;;;;5047643;28;20114;-72
2022/08/05 09:01:18;;;;;;;2.60;0.28;;;19.00;99.90;;;;;;5050153;28;20450;-71
2022/08/05 09:03:50;;;;;;;6.38;0.47;;;19.00;99.90;;;;;;5037530;28;20124;-72
2022/08/05 09:06:16;;;;;;;1.75;0.30;;;19.30;99.90;;;;;;5040658;28;20567;-69
2022/08/05 09:08:41;;;;;;;1.35;0.10;;;19.10;99.90;;;;;;5028849;28;20120;-73
2022/08/05 09:11:08;;;;;;;1.77;0.30;;;19.40;99.90;;;;;;5032927;28;20045;-76
2022/08/05 09:13:35;;;;;;;2.50;0.38;;;19.30;99.90;;;;;;5034665;28;20049;-77
2022/08/05 09:16:02;;;;;;;1.25;0.25;;;19.50;99.90;;;;;;5039233;28;20496;-77
2022/08/05 09:18:28;;;;;;;2.50;0.30;;;19.60;99.90;;;;;;5013498;28;20527;-72
2022/08/05 09:20:54;;;;;;;2.28;0.20;;;19.60;99.90;;;;;;5022555;28;20052;-73
2022/08/05 09:23:20;;;;;;;2.20;0.40;;;19.40;99.90;;;;;;5043948;28;20049;-71
2022/08/05 09:25:49;;;;;;;3.28;0.25;;;19.50;99.90;;;;;;5030744;28;20038;-74
2022/08/05 09:28:23;;;;;;;1.90;0.28;;;19.60;99.90;;;;;;5031892;28;20052;-71
2022/08/05 09:30:57;;;;;;;1.98;0.28;;;19.40;99.90;;;;;;5050690;28;20041;-75
2022/08/05 09:33:24;;;;;;;2.67;0.30;;;19.50;99.90;;;;;;5048905;28;20067;-71
2022/08/05 09:36:00;;;;;;;2.40;0.35;;;19.50;99.90;;;;;;5049272;28;20057;-72
2022/08/05 09:38:27;;;;;;;4.85;0.40;;;19.40;99.90;;;;;;5035551;28;20099;-71
2022/08/05 09:41:09;;;;;;;1.42;0.28;;;19.40;99.90;;;;;;5035349;28;20045;-74
2022/08/05 09:43:37;;;;;;;5.47;0.30;;;19.60;99.90;;;;;;5039501;28;20122;-73
2022/08/05 09:46:05;;;;;;;2.22;0.10;;;19.60;99.90;;;;;;5046607;28;20131;-71
2022/08/05 09:48:34;;;;;;;1.50;0.30;;;19.50;99.90;;;;;;5034345;28;20084;-75
2022/08/05 09:51:05;;;;;;;2.08;0.30;;;19.30;99.90;;;;;;5033585;28;20084;-74
2022/08/05 09:53:50;;;;;;;1.90;0.10;;;19.50;99.90;;;;;;5028577;28;20504;-73
2022/08/05 09:56:32;;;;;;;1.50;0.30;;;19.60;99.90;;;;;;5034124;28;20088;-70
2022/08/05 09:59:05;;;;;;;1.92;0.30;;;19.60;99.90;;;;;;5029768;28;20076;-71
2022/08/05 10:01:32;;;;;;;2.50;0.30;;;19.50;99.90;;;;;;5040284;28;20049;-71
2022/08/05 10:04:13;;;;;;;3.45;0.20;;;19.40;99.90;;;;;;5036556;28;20140;-70
2022/08/05 10:06:52;;;;;;;1.88;0.22;;;19.50;99.90;;;;;;5036630;28;20116;-70
2022/08/05 10:09:20;;;;;;;1.67;0.10;;;19.60;99.90;;;;;;5042215;28;20080;-74
2022/08/05 10:11:46;;;;;;;1.92;0.20;;;19.40;99.90;;;;;;5036564;28;20400;-71
2022/08/05 10:14:27;;;;;;;2.00;0.10;;;19.40;99.90;;;;;;5049437;28;20098;-72
2022/08/05 10:16:55;;;;;;;1.77;0.10;;;19.40;99.90;;;;;;5023452;28;20046;-71
2022/08/05 10:19:22;;;;;;;1.83;0.10;;;19.30;99.90;;;;;;5045393;28;20052;-70
2022/08/05 10:21:51;;;;;;;2.05;0.10;;;19.40;99.90;;;;;;5045038;28;20511;-76
2022/08/05 10:24:18;;;;;;;0.13;0.00;;;19.50;99.90;;;;;;5040962;28;20040;-70
2022/08/05 10:26:46;;;;;;;1.17;0.00;;;19.60;99.90;;;;;;5015870;28;20493;-70
2022/08/05 10:29:12;;;;;;;1.48;0.00;;;19.70;99.90;;;;;;5027828;28;20191;-69
2022/08/05 10:31:38;;;;;;;0.93;0.10;;;19.50;99.90;;;;;;5046258;28;20100;-70
2022/08/05 10:34:06;;;;;;;2.03;0.25;;;19.70;99.90;;;;;;5049161;28;20404;-70
2022/08/05 10:36:33;;;;;;;0.75;0.10;;;19.80;99.90;;;;;;5036061;28;20041;-76
2022/08/05 10:39:04;;;;;;;2.03;0.00;;;19.80;99.90;;;;;;5046990;28;20134;-71
2022/08/05 10:41:34;;;;;;;0.40;0.00;;;19.80;99.90;;;;;;5050105;28;20037;-70
2022/08/05 10:44:06;;;;;;;0.65;0.10;;;19.60;99.90;;;;;;5035039;28;20475;-75
2022/08/05 10:46:51;;;;;;;0.22;0.03;;;19.80;99.90;;;;;;5034718;28;20906;-71
2022/08/05 10:49:17;;;;;;;1.17;0.00;;;19.90;99.90;;;;;;5047582;28;20041;-73
2022/08/05 10:51:59;;;;;;;2.88;0.10;;;20.00;99.90;;;;;;5040247;28;20167;-77
2022/08/05 10:54:45;;;;;;;2.85;0.30;;;19.80;99.40;;;;;;5042458;28;20403;-73
2022/08/05 10:57:23;;;;;;;1.27;0.10;;;19.90;99.90;;;;;;5013799;28;20057;-74
2022/08/05 11:00:10;;;;;;;1.80;0.03;;;19.70;99.90;;;;;;5030131;28;20045;-71
2022/08/05 11:02:36;;;;;;;0.50;0.10;;;19.80;99.20;;;;;;5029437;28;20045;-71
2022/08/05 11:05:09;;;;;;;1.55;0.00;;;19.90;99.90;;;;;;5029900;28;20053;-71
2022/08/05 11:07:54;;;;;;;1.13;0.10;;;19.80;99.90;;;;;;5017960;28;20409;-70
2022/08/05 11:10:25;;;;;;;2.08;0.22;;;19.90;99.90;;;;;;5034076;28;20392;-71
2022/08/05 11:12:51;;;;;;;0.40;0.00;;;19.60;99.90;;;;;;5035803;28;20112;-77
2022/08/05 11:15:21;;;;;;;1.00;0.10;;;19.50;99.90;;;;;;5042817;28;20446;-74
2022/08/05 11:18:04;;;;;;;3.38;0.20;;;19.70;99.90;;;;;;5025102;28;20048;-71
2022/08/05 11:20:36;;;;;;;1.45;0.20;;;19.90;99.90;;;;;;5029800;28;20527;-74
2022/08/05 11:23:25;;;;;;;4.10;0.30;;;19.90;99.90;;;;;;5015672;28;20045;-70
2022/08/05 11:26:03;;;;;;;3.60;0.40;;;19.70;99.90;;;;;;5033469;28;20439;-77
2022/08/05 11:28:32;;;;;;;3.90;0.30;;;19.50;99.90;;;;;;5034682;28;20045;-71
2022/08/05 11:31:00;;;;;;;2.00;0.20;;;19.40;99.90;;;;;;5039969;28;20049;-70
2022/08/05 11:33:29;;;;;;;3.20;0.20;;;19.50;99.90;;;;;;5039231;28;20049;-74
2022/08/05 11:35:56;;;;;;;3.35;0.30;;;19.70;99.90;;;;;;5042415;28;20068;-75
2022/08/05 11:38:41;;;;;;;2.58;0.22;;;19.90;99.90;;;;;;5026144;28;20045;-68
2022/08/05 11:41:27;;;;;;;1.83;0.20;;;19.80;99.90;;;;;;5029120;28;20037;-76
2022/08/05 11:44:00;;;;;;;0.70;0.10;;;19.80;99.90;;;;;;5043302;28;20045;-70
2022/08/05 11:46:27;;;;;;;3.13;0.20;;;19.90;99.90;;;;;;5040447;28;20049;-78
2022/08/05 11:48:53;;;;;;;2.50;0.20;;;19.70;99.90;;;;;;5047626;28;20037;-72
2022/08/05 11:51:19;;;;;;;1.08;0.10;;;19.40;99.90;;;;;;5051126;28;20435;-80
2022/08/05 11:53:46;;;;;;;1.80;0.13;;;19.40;99.90;;;;;;5052223;28;20144;-74
2022/08/05 11:56:12;;;;;;;1.50;0.20;;;19.50;99.90;;;;;;5041473;28;20037;-70
2022/08/05 11:58:45;;;;;;;4.72;0.50;;;19.70;99.90;;;;;;5035486;28;20124;-71
2022/08/05 12:01:13;;;;;;;1.35;0.30;;;19.60;99.90;;;;;;5040613;28;20033;-75
2022/08/05 12:03:43;;;;;;;2.15;0.22;;;19.50;99.90;;;;;;5040258;28;20037;-71
2022/08/05 12:06:11;;;;;;;3.03;0.25;;;19.00;99.90;;;;;;5033614;28;20057;-76
2022/08/05 12:08:39;;;;;;;4.32;0.15;;;19.10;99.90;;;;;;5031488;28;20042;-70
2022/08/05 12:11:07;;;;;;;2.63;0.30;;;18.70;99.90;;;;;;5040841;28;20156;-69
2022/08/05 12:13:33;;;;;;;3.25;0.30;;;19.00;99.90;;;;;;5035619;28;20045;-70
2022/08/05 12:15:59;;;;;;;2.90;0.30;;;18.90;99.90;;;;;;5044921;28;20071;-71
2022/08/05 12:18:33;;;;;;;2.17;0.30;;;19.10;99.90;;;;;;5029828;28;20084;-71
2022/08/05 12:21:13;;;;;;;3.28;0.22;;;18.80;99.90;;;;;;5039650;28;20508;-70
2022/08/05 12:23:39;;;;;;;4.70;0.20;;;18.80;99.90;;;;;;5038813;28;20049;-73
2022/08/05 12:26:05;;;;;;;2.00;0.40;;;18.90;99.90;;;;;;5045311;28;20053;-72
2022/08/05 12:28:36;;;;;;;1.98;0.30;;;19.10;99.90;;;;;;5029339;28;20034;-70
2022/08/05 12:31:02;;;;;;;3.33;0.30;;;19.20;99.90;;;;;;5038228;28;20048;-74
2022/08/05 12:33:29;;;;;;;1.95;0.30;;;19.20;99.90;;;;;;5040103;28;20055;-70
2022/08/05 12:35:56;;;;;;;1.80;0.10;;;18.90;99.90;;;;;;5038414;28;20056;-69
2022/08/05 12:38:22;;;;;;;1.63;0.25;;;19.20;99.90;;;;;;5023122;28;20045;-75
2022/08/05 12:40:49;;;;;;;1.23;0.10;;;19.50;99.90;;;;;;5038091;28;20669;-78
2022/08/05 12:43:15;;;;;;;2.08;0.30;;;19.50;99.90;;;;;;5048498;28;20098;-78
2022/08/05 12:45:54;;;;;;;2.13;0.20;;;19.10;99.90;;;;;;5039266;28;20095;-70
2022/08/05 12:48:21;;;;;;;2.35;0.30;;;19.30;99.90;;;;;;5023440;28;20259;-70
2022/08/05 12:51:09;;;;;;;2.88;0.20;;;19.60;99.90;;;;;;5038301;28;20397;-73
2022/08/05 12:53:41;;;;;;;2.10;0.13;;;19.90;99.90;;;;;;5041728;28;20127;-75
2022/08/05 12:56:42;;;;;;;3.17;0.20;;;19.90;99.90;;;;;;5036570;28;20053;-70
2022/08/05 12:59:15;;;;;;;0.90;0.10;;;19.80;99.90;;;;;;5030210;28;20053;-70